createdAt,value
2024-01-24T00:02:16.000Z,0.80
2024-01-24T00:04:42.933Z,1.20
2024-01-24T00:07:09.783Z,1.30
2024-01-24T00:09:36.846Z,1.00
2024-01-24T00:12:03.974Z,1.20
2024-01-24T00:14:31.025Z,1.27
2024-01-24T00:16:57.828Z,1.37
2024-01-24T00:19:38.866Z,1.37
2024-01-24T00:22:06.255Z,1.10
2024-01-24T00:24:33.654Z,1.20
2024-01-24T00:27:00.644Z,1.27
2024-01-24T00:29:27.315Z,1.57
2024-01-24T00:31:56.847Z,1.43
2024-01-24T00:34:24.184Z,1.30
2024-01-24T00:36:51.438Z,1.00
2024-01-24T00:39:18.505Z,1.00
2024-01-24T00:41:45.437Z,1.37
2024-01-24T00:44:12.284Z,1.10
2024-01-24T00:46:39.114Z,1.20
2024-01-24T00:49:10.085Z,1.30
2024-01-24T00:51:37.688Z,0.90
2024-01-24T00:54:04.711Z,1.40
2024-01-24T00:56:31.622Z,0.90
2024-01-24T00:58:58.412Z,0.67
2024-01-24T01:01:25.316Z,1.07
2024-01-24T01:03:52.202Z,1.20
2024-01-24T01:06:19.138Z,1.10
2024-01-24T01:08:46.557Z,1.00
2024-01-24T01:11:13.507Z,0.70
2024-01-24T01:13:40.296Z,1.00
2024-01-24T01:16:07.451Z,1.13
2024-01-24T01:18:34.318Z,0.87
2024-01-24T01:21:01.261Z,1.07
2024-01-24T01:23:28.205Z,0.77
2024-01-24T01:25:55.219Z,0.93
2024-01-24T01:28:22.133Z,1.03
2024-01-24T01:30:49.125Z,1.00
2024-01-24T01:33:16.213Z,0.97
2024-01-24T01:35:45.846Z,1.00
2024-01-24T01:38:15.141Z,0.97
2024-01-24T01:40:42.274Z,1.20
2024-01-24T01:43:14.779Z,0.80
2024-01-24T01:45:44.751Z,0.90
2024-01-24T01:48:12.596Z,0.90
2024-01-24T01:50:39.789Z,0.90
2024-01-24T01:53:07.436Z,1.00
2024-01-24T01:55:35.469Z,0.80
2024-01-24T01:58:02.891Z,0.93
2024-01-24T02:00:29.796Z,1.00
2024-01-24T02:02:56.951Z,0.77
2024-01-24T02:05:24.313Z,0.87
2024-01-24T02:07:51.911Z,1.17
2024-01-24T02:10:18.847Z,0.80
2024-01-24T02:12:45.737Z,0.67
2024-01-24T02:15:12.927Z,0.60
2024-01-24T02:17:40.091Z,0.70
2024-01-24T02:20:11.106Z,0.70
2024-01-24T02:22:38.272Z,0.70
2024-01-24T02:25:06.158Z,0.50
2024-01-24T02:27:33.171Z,0.30
2024-01-24T02:30:00.269Z,0.60
2024-01-24T02:32:27.204Z,0.70
2024-01-24T02:34:54.121Z,0.50
2024-01-24T02:37:21.997Z,0.30
2024-01-24T02:39:49.036Z,1.03
2024-01-24T02:42:16.198Z,0.50
2024-01-24T02:44:43.125Z,0.50
2024-01-24T02:47:10.802Z,0.90
2024-01-24T02:49:37.818Z,0.40
2024-01-24T02:52:05.091Z,0.30
2024-01-24T02:54:32.205Z,0.40
2024-01-24T02:56:59.188Z,0.13
2024-01-24T02:59:26.962Z,0.30
2024-01-24T03:01:54.004Z,0.40
2024-01-24T03:04:21.237Z,0.30
2024-01-24T03:06:48.372Z,0.50
2024-01-24T03:09:15.476Z,0.33
2024-01-24T03:11:42.862Z,0.40
2024-01-24T03:14:10.701Z,0.10
2024-01-24T03:16:37.571Z,0.40
2024-01-24T03:19:06.785Z,0.23
2024-01-24T03:21:34.116Z,0.10
2024-01-24T03:24:01.466Z,0.20
2024-01-24T03:26:28.487Z,0.30
2024-01-24T03:28:55.424Z,0.20
2024-01-24T03:31:22.215Z,0.30
2024-01-24T03:33:49.165Z,0.27
2024-01-24T03:36:16.160Z,0.40
2024-01-24T03:38:45.802Z,0.40
2024-01-24T03:41:12.713Z,0.37
2024-01-24T03:43:40.812Z,0.20
2024-01-24T03:46:08.274Z,0.40
2024-01-24T03:48:35.094Z,0.70
2024-01-24T03:51:02.171Z,0.43
2024-01-24T03:53:28.961Z,0.40
2024-01-24T03:55:55.811Z,0.30
2024-01-24T03:58:23.022Z,0.43
2024-01-24T04:00:51.738Z,0.33
2024-01-24T04:03:18.664Z,0.53
2024-01-24T04:05:45.598Z,0.70
2024-01-24T04:08:12.311Z,0.77
2024-01-24T04:10:39.131Z,0.70
2024-01-24T04:13:05.854Z,1.37
2024-01-24T04:15:33.138Z,0.93
2024-01-24T04:18:00.477Z,0.87
2024-01-24T04:20:28.218Z,0.57
2024-01-24T04:22:55.012Z,0.80
2024-01-24T04:25:22.027Z,1.10
2024-01-24T04:27:48.943Z,1.33
2024-01-24T04:30:16.768Z,1.57
2024-01-24T04:32:43.852Z,1.23
2024-01-24T04:35:11.556Z,1.80
2024-01-24T04:37:38.326Z,1.20
2024-01-24T04:40:06.174Z,1.47
2024-01-24T04:42:32.980Z,2.10
2024-01-24T04:45:00.116Z,2.23
2024-01-24T04:47:27.078Z,2.33
2024-01-24T04:49:54.379Z,3.00
2024-01-24T04:52:21.392Z,2.67
2024-01-24T04:54:48.483Z,2.33
2024-01-24T04:57:15.660Z,1.87
2024-01-24T04:59:49.929Z,2.43
2024-01-24T05:02:23.409Z,3.03
2024-01-24T05:04:50.635Z,3.00
2024-01-24T05:07:17.831Z,2.67
2024-01-24T05:09:45.001Z,2.80
2024-01-24T05:12:12.246Z,3.37
2024-01-24T05:14:39.066Z,2.70
2024-01-24T05:17:06.167Z,3.20
2024-01-24T05:19:33.917Z,3.40
2024-01-24T05:22:01.273Z,3.33
2024-01-24T05:24:28.304Z,3.20
2024-01-24T05:26:56.875Z,3.43
2024-01-24T05:29:23.676Z,4.00
2024-01-24T05:31:50.576Z,3.20
2024-01-24T05:34:17.402Z,4.43
2024-01-24T05:36:44.527Z,4.20
2024-01-24T05:39:11.423Z,4.60
2024-01-24T05:41:38.286Z,4.90
2024-01-24T05:44:05.264Z,4.23
2024-01-24T05:46:32.306Z,4.50
2024-01-24T05:49:01.806Z,4.30
2024-01-24T05:51:29.233Z,4.47
2024-01-24T05:53:56.045Z,4.97
2024-01-24T05:56:22.900Z,4.87
2024-01-24T05:58:49.697Z,3.80
2024-01-24T06:01:16.792Z,4.60
2024-01-24T06:03:43.821Z,4.77
2024-01-24T06:06:10.949Z,3.90
2024-01-24T06:08:40.120Z,3.93
2024-01-24T06:11:07.269Z,4.20
2024-01-24T06:13:34.094Z,4.73
2024-01-24T06:16:01.145Z,4.20
2024-01-24T06:18:28.217Z,4.70
2024-01-24T06:20:55.130Z,4.10
2024-01-24T06:23:21.917Z,4.17
2024-01-24T06:25:48.956Z,5.27
2024-01-24T06:28:16.374Z,5.20
2024-01-24T06:30:43.213Z,5.03
2024-01-24T06:33:10.698Z,5.50
2024-01-24T06:35:37.861Z,4.80
2024-01-24T06:38:04.995Z,4.80
2024-01-24T06:40:32.330Z,5.00
2024-01-24T06:42:59.896Z,5.50
2024-01-24T06:45:27.299Z,5.77
2024-01-24T06:47:54.469Z,5.50
2024-01-24T06:50:21.388Z,5.10
2024-01-24T06:52:48.228Z,6.40
2024-01-24T06:55:17.667Z,5.20
2024-01-24T06:57:45.565Z,4.87
2024-01-24T07:00:13.538Z,6.73
2024-01-24T07:02:40.590Z,6.90
2024-01-24T07:05:08.360Z,4.73
2024-01-24T07:07:35.420Z,5.97
2024-01-24T07:10:02.397Z,5.13
2024-01-24T07:12:29.294Z,4.70
2024-01-24T07:14:56.826Z,4.70
2024-01-24T07:17:24.857Z,5.43
2024-01-24T07:19:52.754Z,5.97
2024-01-24T07:22:19.703Z,5.23
2024-01-24T07:24:46.899Z,5.20
2024-01-24T07:27:13.827Z,6.17
2024-01-24T07:29:40.652Z,5.00
2024-01-24T07:32:07.705Z,5.50
2024-01-24T07:34:34.871Z,5.97
2024-01-24T07:37:02.060Z,6.00
2024-01-24T07:39:30.012Z,6.37
2024-01-24T07:41:57.569Z,5.57
2024-01-24T07:44:24.907Z,5.23
2024-01-24T07:46:52.067Z,6.10
2024-01-24T07:49:19.549Z,5.37
2024-01-24T07:51:48.315Z,5.30
2024-01-24T07:54:20.372Z,5.40
2024-01-24T07:56:48.070Z,4.93
2024-01-24T07:59:17.684Z,7.33
2024-01-24T08:01:49.689Z,5.57
2024-01-24T08:04:19.005Z,6.10
2024-01-24T08:06:48.839Z,4.37
2024-01-24T08:09:16.206Z,6.37
2024-01-24T08:11:43.216Z,5.80
2024-01-24T08:14:10.868Z,5.47
2024-01-24T08:16:37.811Z,6.67
2024-01-24T08:19:04.879Z,6.07
2024-01-24T08:21:32.034Z,5.17
2024-01-24T08:23:59.189Z,5.73
2024-01-24T08:26:26.135Z,5.83
2024-01-24T08:28:53.972Z,6.47
2024-01-24T08:31:20.991Z,5.67
2024-01-24T08:33:51.547Z,4.97
2024-01-24T08:36:20.527Z,6.23
2024-01-24T08:38:47.540Z,5.30
2024-01-24T08:41:14.740Z,4.97
2024-01-24T08:43:42.360Z,5.80
2024-01-24T08:46:09.334Z,5.77
2024-01-24T08:48:36.443Z,6.33
2024-01-24T08:51:03.790Z,6.43
2024-01-24T08:53:30.800Z,5.77
2024-01-24T08:55:57.796Z,6.03
2024-01-24T08:58:24.641Z,6.23
2024-01-24T09:00:52.687Z,7.70
2024-01-24T09:03:20.652Z,6.30
2024-01-24T09:05:48.105Z,6.43
2024-01-24T09:08:16.519Z,6.50
2024-01-24T09:10:43.825Z,8.00
2024-01-24T09:13:11.081Z,6.03
2024-01-24T09:15:38.303Z,6.03
2024-01-24T09:18:05.663Z,5.73
2024-01-24T09:20:32.712Z,4.93
2024-01-24T09:22:59.701Z,7.17
2024-01-24T09:25:26.899Z,5.67
2024-01-24T09:27:55.235Z,7.07
2024-01-24T09:30:22.587Z,6.73
2024-01-24T09:32:49.644Z,7.80
2024-01-24T09:35:17.741Z,5.83
2024-01-24T09:37:50.222Z,6.57
2024-01-24T09:40:18.007Z,6.57
2024-01-24T09:42:45.779Z,6.03
2024-01-24T09:45:19.456Z,6.40
2024-01-24T09:47:50.836Z,6.90
2024-01-24T09:50:18.287Z,6.03
2024-01-24T09:52:47.523Z,5.87
2024-01-24T09:55:17.798Z,7.07
2024-01-24T09:57:46.020Z,5.90
2024-01-24T10:00:15.758Z,6.33
2024-01-24T10:02:47.251Z,6.57
2024-01-24T10:05:17.956Z,7.17
2024-01-24T10:07:45.150Z,5.60
2024-01-24T10:10:16.973Z,7.97
2024-01-24T10:12:44.595Z,6.47
2024-01-24T10:15:12.245Z,6.33
2024-01-24T10:17:43.580Z,6.33
2024-01-24T10:20:13.135Z,6.30
2024-01-24T10:22:40.866Z,6.63
2024-01-24T10:25:11.041Z,7.00
2024-01-24T10:27:39.720Z,5.67
2024-01-24T10:30:11.559Z,7.80
2024-01-24T10:32:39.112Z,5.90
2024-01-24T10:35:06.855Z,7.73
2024-01-24T10:37:34.422Z,7.00
2024-01-24T10:40:13.056Z,6.80
2024-01-24T10:42:42.404Z,7.20
2024-01-24T10:45:10.316Z,7.73
2024-01-24T10:47:37.709Z,7.30
2024-01-24T10:50:07.538Z,7.30
2024-01-24T10:52:35.087Z,7.47
2024-01-24T10:55:06.627Z,7.47
2024-01-24T10:57:36.653Z,7.73
2024-01-24T11:00:07.433Z,6.47
2024-01-24T11:02:35.413Z,6.93
2024-01-24T11:05:05.135Z,6.27
2024-01-24T11:07:39.368Z,6.57
2024-01-24T11:10:42.053Z,7.07
2024-01-24T11:13:09.659Z,4.90
2024-01-24T11:15:36.620Z,5.50
2024-01-24T11:18:20.788Z,6.13
2024-01-24T11:20:49.144Z,7.00
2024-01-24T11:24:03.983Z,5.90
2024-01-24T11:26:30.885Z,6.17
2024-01-24T11:29:17.753Z,6.90
2024-01-24T11:31:45.669Z,5.80
2024-01-24T11:34:13.526Z,5.80
2024-01-24T11:36:52.549Z,5.87
2024-01-24T11:39:32.012Z,6.23
2024-01-24T11:42:23.842Z,5.70
2024-01-24T11:44:51.596Z,5.53
2024-01-24T11:47:18.456Z,5.37
2024-01-24T11:49:52.451Z,5.70
2024-01-24T11:52:22.680Z,5.17
2024-01-24T11:54:56.109Z,6.27
2024-01-24T11:57:23.335Z,6.10
2024-01-24T11:59:50.259Z,5.47
2024-01-24T12:02:17.263Z,6.00
2024-01-24T12:04:44.285Z,6.37
2024-01-24T12:07:11.388Z,5.83
2024-01-24T12:09:38.235Z,6.70
2024-01-24T12:12:05.658Z,5.33
2024-01-24T12:14:32.880Z,5.43
2024-01-24T12:17:00.404Z,5.07
2024-01-24T12:19:33.232Z,5.60
2024-01-24T12:22:00.298Z,5.57
2024-01-24T12:24:30.493Z,4.87
2024-01-24T12:27:00.215Z,6.70
2024-01-24T12:29:28.900Z,5.33
2024-01-24T12:32:01.320Z,5.00
2024-01-24T12:34:31.757Z,5.73
2024-01-24T12:36:59.723Z,5.73
2024-01-24T12:39:33.266Z,5.77
2024-01-24T12:42:02.094Z,5.33
2024-01-24T12:44:30.310Z,5.80
2024-01-24T12:46:58.227Z,6.63
2024-01-24T12:49:26.118Z,6.03
2024-01-24T12:51:54.890Z,4.83
2024-01-24T12:54:23.015Z,7.90
2024-01-24T12:56:51.269Z,6.83
2024-01-24T12:59:19.326Z,4.57
2024-01-24T13:01:46.555Z,4.93
2024-01-24T13:04:13.890Z,3.50
2024-01-24T13:06:41.662Z,5.67
2024-01-24T13:09:09.819Z,5.73
2024-01-24T13:11:37.036Z,4.87
2024-01-24T13:14:04.694Z,4.20
2024-01-24T13:16:32.048Z,5.47
2024-01-24T13:18:59.066Z,4.83
2024-01-24T13:21:26.139Z,4.73
2024-01-24T13:23:53.218Z,5.23
2024-01-24T13:26:21.309Z,5.27
2024-01-24T13:28:48.200Z,4.73
2024-01-24T13:31:15.354Z,5.10
2024-01-24T13:33:45.376Z,5.30
2024-01-24T13:36:12.585Z,4.80
2024-01-24T13:38:40.561Z,4.43
2024-01-24T13:41:08.013Z,4.47
2024-01-24T13:43:35.081Z,5.40
2024-01-24T13:46:02.034Z,6.10
2024-01-24T13:48:29.227Z,4.43
2024-01-24T13:51:04.319Z,5.23
2024-01-24T13:53:31.772Z,4.80
2024-01-24T13:55:59.023Z,4.30
2024-01-24T13:58:27.105Z,4.67
2024-01-24T14:00:54.866Z,4.13
2024-01-24T14:03:22.253Z,4.50
2024-01-24T14:05:49.945Z,4.03
2024-01-24T14:08:19.999Z,6.33
2024-01-24T14:10:47.038Z,4.40
2024-01-24T14:13:16.268Z,4.30
2024-01-24T14:15:44.440Z,4.77
2024-01-24T14:18:13.199Z,4.80
2024-01-24T14:20:40.864Z,4.70
2024-01-24T14:23:08.457Z,5.10
2024-01-24T14:25:35.515Z,5.10
2024-01-24T14:28:02.631Z,5.17
2024-01-24T14:30:30.002Z,4.40
2024-01-24T14:32:57.549Z,5.20
2024-01-24T14:35:24.954Z,5.43
2024-01-24T14:37:52.092Z,5.13
2024-01-24T14:40:19.383Z,5.50
2024-01-24T14:42:46.400Z,6.03
2024-01-24T14:45:14.407Z,6.17
2024-01-24T14:47:42.211Z,5.30
2024-01-24T14:50:22.194Z,5.43
2024-01-24T14:52:50.597Z,5.30
2024-01-24T14:55:18.446Z,5.37
2024-01-24T14:57:45.711Z,5.27
2024-01-24T15:00:13.853Z,6.57
2024-01-24T15:02:40.940Z,6.30
2024-01-24T15:05:09.737Z,6.53
2024-01-24T15:07:40.109Z,4.70
2024-01-24T15:10:09.005Z,5.97
2024-01-24T15:12:37.896Z,6.53
2024-01-24T15:15:08.791Z,5.47
2024-01-24T15:17:36.049Z,5.97
2024-01-24T15:20:04.935Z,6.00
2024-01-24T15:22:33.173Z,5.73
2024-01-24T15:25:01.819Z,6.17
2024-01-24T15:27:29.409Z,6.07
2024-01-24T15:29:56.730Z,5.73
2024-01-24T15:32:23.748Z,5.63
2024-01-24T15:34:50.899Z,6.50
2024-01-24T15:37:18.639Z,5.37
2024-01-24T15:39:45.783Z,6.27
2024-01-24T15:42:13.900Z,5.80
2024-01-24T15:44:40.795Z,6.13
2024-01-24T15:47:09.147Z,6.70
2024-01-24T15:49:38.327Z,6.33
2024-01-24T15:52:06.063Z,6.23
2024-01-24T15:54:35.013Z,6.90
2024-01-24T15:57:02.832Z,6.07
2024-01-24T15:59:29.815Z,6.40
2024-01-24T16:01:57.017Z,6.73
2024-01-24T16:04:23.990Z,6.60
2024-01-24T16:06:51.194Z,5.83
2024-01-24T16:09:18.525Z,6.03
2024-01-24T16:11:45.493Z,5.93
2024-01-24T16:14:15.546Z,7.60
2024-01-24T16:16:45.788Z,6.03
2024-01-24T16:19:13.110Z,6.47
2024-01-24T16:21:44.695Z,5.70
2024-01-24T16:24:11.765Z,6.17
2024-01-24T16:26:38.689Z,5.77
2024-01-24T16:29:05.760Z,5.87
2024-01-24T16:31:32.814Z,6.47
2024-01-24T16:34:00.020Z,6.00
2024-01-24T16:36:27.615Z,6.77
2024-01-24T16:38:54.970Z,5.30
2024-01-24T16:41:21.896Z,5.33
2024-01-24T16:43:50.042Z,7.30
2024-01-24T16:46:20.690Z,5.90
2024-01-24T16:48:47.744Z,5.53
2024-01-24T16:51:14.720Z,6.17
2024-01-24T16:53:41.706Z,5.97
2024-01-24T16:56:11.558Z,6.43
2024-01-24T16:58:40.808Z,5.80
2024-01-24T17:01:07.958Z,6.10
2024-01-24T17:03:35.027Z,5.67
2024-01-24T17:06:08.603Z,5.87
2024-01-24T17:08:35.923Z,7.33
2024-01-24T17:11:03.406Z,6.43
2024-01-24T17:13:30.394Z,6.80
2024-01-24T17:15:57.570Z,6.50
2024-01-24T17:18:27.369Z,5.63
2024-01-24T17:20:55.154Z,9.30
2024-01-24T17:23:22.072Z,7.27
2024-01-24T17:25:49.539Z,6.17
2024-01-24T17:28:17.177Z,6.53
2024-01-24T17:30:44.685Z,5.70
2024-01-24T17:33:11.566Z,6.10
2024-01-24T17:35:38.749Z,6.47
2024-01-24T17:38:05.729Z,6.33
2024-01-24T17:40:32.513Z,6.00
2024-01-24T17:43:01.321Z,6.03
2024-01-24T17:45:28.294Z,5.77
2024-01-24T17:47:56.914Z,6.80
2024-01-24T17:50:24.080Z,5.67
2024-01-24T17:52:51.404Z,5.43
2024-01-24T17:55:28.637Z,6.30
2024-01-24T17:57:58.297Z,7.03
2024-01-24T18:00:25.395Z,6.80
2024-01-24T18:02:52.415Z,6.30
2024-01-24T18:05:19.940Z,6.97
2024-01-24T18:07:47.492Z,7.20
2024-01-24T18:10:14.600Z,6.77
2024-01-24T18:12:41.811Z,5.83
2024-01-24T18:15:09.034Z,6.57
2024-01-24T18:17:38.362Z,5.90
2024-01-24T18:20:07.130Z,6.13
2024-01-24T18:22:33.934Z,5.80
2024-01-24T18:25:00.946Z,5.67
2024-01-24T18:27:27.881Z,4.90
2024-01-24T18:29:54.766Z,5.17
2024-01-24T18:32:21.546Z,5.80
2024-01-24T18:34:49.069Z,6.00
2024-01-24T18:37:16.382Z,6.70
2024-01-24T18:39:43.562Z,5.87
2024-01-24T18:42:10.720Z,5.97
2024-01-24T18:44:41.358Z,5.43
2024-01-24T18:47:08.915Z,6.17
2024-01-24T18:49:36.443Z,6.63
2024-01-24T18:52:03.851Z,5.57
2024-01-24T18:54:31.007Z,5.90
2024-01-24T18:56:57.975Z,6.23
2024-01-24T18:59:25.289Z,5.90
2024-01-24T19:01:52.595Z,6.20
2024-01-24T19:04:19.962Z,6.60
2024-01-24T19:06:47.697Z,6.33
2024-01-24T19:09:14.993Z,6.33
2024-01-24T19:11:41.904Z,6.07
2024-01-24T19:14:08.932Z,5.60
2024-01-24T19:16:36.141Z,6.40
2024-01-24T19:19:03.693Z,6.27
2024-01-24T19:21:31.012Z,6.77
2024-01-24T19:23:58.806Z,6.10
2024-01-24T19:26:26.654Z,6.63
2024-01-24T19:28:53.611Z,6.00
2024-01-24T19:31:20.712Z,5.90
2024-01-24T19:33:52.396Z,6.53
2024-01-24T19:36:20.888Z,6.20
2024-01-24T19:38:48.253Z,6.97
2024-01-24T19:41:15.254Z,6.23
2024-01-24T19:43:42.261Z,5.97
2024-01-24T19:46:09.546Z,6.73
2024-01-24T19:48:36.557Z,5.83
2024-01-24T19:51:03.678Z,6.13
2024-01-24T19:53:33.883Z,6.33
2024-01-24T19:56:02.312Z,6.87
2024-01-24T19:58:29.836Z,7.00
2024-01-24T20:00:57.261Z,6.83
2024-01-24T20:03:24.298Z,6.40
2024-01-24T20:05:51.351Z,5.90
2024-01-24T20:08:18.561Z,6.63
2024-01-24T20:10:49.081Z,7.73
2024-01-24T20:13:16.710Z,6.07
2024-01-24T20:15:47.649Z,6.63
2024-01-24T20:18:19.207Z,7.03
2024-01-24T20:20:46.853Z,6.93
2024-01-24T20:23:13.739Z,7.67
2024-01-24T20:25:40.861Z,7.07
2024-01-24T20:28:07.786Z,7.17
2024-01-24T20:30:34.868Z,7.40
2024-01-24T20:33:05.065Z,7.10
2024-01-24T20:35:33.037Z,6.80
2024-01-24T20:38:00.459Z,7.40
2024-01-24T20:40:27.505Z,6.53
2024-01-24T20:42:54.625Z,7.47
2024-01-24T20:45:21.652Z,6.90
2024-01-24T20:47:50.614Z,6.97
2024-01-24T20:50:22.275Z,6.30
2024-01-24T20:52:51.095Z,7.60
2024-01-24T20:55:23.906Z,8.07
2024-01-24T20:57:51.824Z,6.83
2024-01-24T21:00:20.766Z,7.13
2024-01-24T21:02:48.001Z,6.97
2024-01-24T21:05:15.879Z,7.40
2024-01-24T21:07:43.021Z,5.70
2024-01-24T21:10:10.851Z,7.93
2024-01-24T21:12:38.131Z,6.73
2024-01-24T21:15:05.484Z,7.43
2024-01-24T21:17:33.676Z,6.67
2024-01-24T21:20:00.718Z,6.33
2024-01-24T21:22:30.809Z,6.60
2024-01-24T21:24:57.851Z,6.83
2024-01-24T21:27:24.784Z,6.80
2024-01-24T21:29:51.637Z,6.83
2024-01-24T21:32:18.354Z,6.37
2024-01-24T21:34:45.398Z,6.83
2024-01-24T21:40:28.292Z,7.20
2024-01-24T21:42:55.250Z,7.50
2024-01-24T21:45:22.604Z,7.40
2024-01-24T21:47:49.738Z,7.53
2024-01-24T21:50:17.273Z,6.97
2024-01-24T21:52:44.306Z,8.57
2024-01-24T21:55:11.169Z,6.47
2024-01-24T21:57:39.065Z,7.67
2024-01-24T22:00:07.627Z,7.30
2024-01-24T22:02:35.217Z,8.87
2024-01-24T22:05:02.169Z,7.57
2024-01-24T22:07:32.208Z,6.60
2024-01-24T22:09:59.279Z,7.13
2024-01-24T22:12:26.331Z,7.10
2024-01-24T22:14:53.424Z,6.97
2024-01-24T22:17:20.466Z,7.00
2024-01-24T22:19:47.554Z,6.87
2024-01-24T22:22:14.476Z,7.57
2024-01-24T22:24:41.323Z,7.00
2024-01-24T22:27:08.202Z,6.43
2024-01-24T22:29:35.176Z,7.03
2024-01-24T22:32:03.837Z,7.60
2024-01-24T22:34:30.946Z,5.97
2024-01-24T22:36:58.032Z,7.87
2024-01-24T22:39:24.812Z,7.37
2024-01-24T22:41:51.711Z,6.87
2024-01-24T22:44:20.394Z,7.83
2024-01-24T22:46:48.414Z,8.23
2024-01-24T22:49:15.713Z,6.60
2024-01-24T22:51:42.847Z,7.27
2024-01-24T22:54:09.966Z,7.77
2024-01-24T22:56:36.912Z,8.30
2024-01-24T22:59:03.725Z,6.27
2024-01-24T23:01:30.951Z,6.53
2024-01-24T23:04:09.852Z,7.00
2024-01-24T23:06:37.146Z,7.23
2024-01-24T23:09:05.364Z,6.57
2024-01-24T23:11:32.563Z,7.77
2024-01-24T23:13:59.567Z,8.17
2024-01-24T23:16:26.442Z,8.00
2024-01-24T23:18:55.551Z,7.10
2024-01-24T23:21:26.872Z,7.70
2024-01-24T23:23:53.948Z,8.10
2024-01-24T23:26:20.692Z,7.33
2024-01-24T23:28:48.249Z,8.07
2024-01-24T23:31:15.292Z,7.23
2024-01-24T23:33:42.375Z,7.77
2024-01-24T23:36:10.227Z,6.60
2024-01-24T23:38:37.099Z,6.80
2024-01-24T23:41:04.039Z,7.73
2024-01-24T23:43:30.962Z,6.63
2024-01-24T23:45:57.713Z,7.43
2024-01-24T23:48:25.026Z,7.40
2024-01-24T23:50:52.078Z,7.10
2024-01-24T23:53:19.229Z,6.93
2024-01-24T23:55:47.438Z,7.43
2024-01-24T23:58:14.537Z,7.20
